Time;durP1;ratioP1;P1;durP2;ratioP2;P2;SDS_P1;SDS_P2;PMS_P1;PMS_P2;Temp;Humidity;BMP_temperature;BMP_pressure;BME280_temperature;BME280_humidity;BME280_pressure;Samples;Min_cycle;Max_cycle;Signal;HPM_P1;HPM_P2
2023/09/04 00:02:34;;;;;;;10.10;2.80;;;;;;;13.38;100.00;100773.25;105777;1257;71569;-63
2023/09/04 00:05:22;;;;;;;10.60;3.00;;;;;;;13.35;100.00;100781.81;105737;1258;69306;-63
2023/09/04 00:08:11;;;;;;;11.90;2.80;;;;;;;13.32;100.00;100788.69;105703;1257;74055;-63
2023/09/04 00:10:59;;;;;;;9.00;3.00;;;;;;;13.28;100.00;100794.13;105605;1258;60794;-65
2023/09/04 00:13:48;;;;;;;12.50;3.60;;;;;;;13.25;100.00;100795.60;105769;1257;61081;-63
2023/09/04 00:16:36;;;;;;;8.30;2.90;;;;;;;13.22;100.00;100794.72;105873;1257;71732;-63
2023/09/04 00:19:25;;;;;;;9.30;2.80;;;;;;;13.21;100.00;100792.69;105740;1266;67980;-64
2023/09/04 00:22:13;;;;;;;21.00;3.70;;;;;;;13.20;100.00;100788.33;106013;1253;73982;-64
2023/09/04 00:25:01;;;;;;;9.50;3.10;;;;;;;13.20;100.00;100786.84;106369;1254;59189;-64
2023/09/04 00:27:50;;;;;;;8.80;3.10;;;;;;;13.21;100.00;100787.72;107777;1254;59226;-65
2023/09/04 00:30:37;;;;;;;8.10;3.00;;;;;;;13.21;100.00;100779.31;106996;1256;71609;-64
2023/09/04 00:33:25;;;;;;;13.30;3.10;;;;;;;13.25;100.00;100783.65;106663;1256;68309;-64
2023/09/04 00:36:14;;;;;;;11.50;3.10;;;;;;;13.30;100.00;100805.55;105998;1255;71810;-63
2023/09/04 00:39:03;;;;;;;12.90;3.10;;;;;;;13.33;100.00;100812.29;105940;1266;61164;-63
2023/09/04 00:41:51;;;;;;;8.20;2.90;;;;;;;13.33;100.00;100816.69;105825;1256;60584;-66
2023/09/04 00:44:39;;;;;;;10.80;2.90;;;;;;;13.34;100.00;100830.18;105692;1259;72351;-63
2023/09/04 00:47:29;;;;;;;12.20;2.90;;;;;;;13.35;100.00;100836.17;105758;1266;69428;-63
2023/09/04 00:50:22;;;;;;;9.60;3.10;;;;;;;13.36;100.00;100831.47;105754;1257;73231;-62
2023/09/04 00:53:11;;;;;;;11.30;3.00;;;;;;;13.35;100.00;100815.16;105803;1254;59342;-63
2023/09/04 00:56:01;;;;;;;8.70;2.80;;;;;;;13.36;100.00;100807.59;105609;1263;61684;-66
2023/09/04 00:58:49;;;;;;;11.80;2.80;;;;;;;13.38;100.00;100815.13;105696;1258;73583;-65
2023/09/04 01:01:37;;;;;;;11.60;3.20;;;;;;;13.39;100.00;100813.62;105924;1259;69308;-64
2023/09/04 01:04:25;;;;;;;9.10;2.90;;;;;;;13.38;100.00;100806.91;105588;1258;74068;-64
2023/09/04 01:07:14;;;;;;;13.00;3.10;;;;;;;13.37;100.00;100807.85;105647;1254;60075;-64
2023/09/04 01:10:03;;;;;;;9.10;2.70;;;;;;;13.37;100.00;100811.84;105775;1266;60544;-64
2023/09/04 01:12:59;;;;;;;9.70;3.20;;;;;;;13.36;100.00;100807.22;105684;1258;72843;-63
2023/09/04 01:15:48;;;;;;;9.20;3.00;;;;;;;13.37;100.00;100797.38;105579;1260;67943;-61
2023/09/04 01:18:36;;;;;;;9.50;3.00;;;;;;;13.39;100.00;100787.79;105764;1258;72880;-63
2023/09/04 01:21:24;;;;;;;10.10;2.70;;;;;;;13.44;100.00;100783.48;105901;1262;59230;-64
2023/09/04 01:24:12;;;;;;;10.90;2.90;;;;;;;13.48;100.00;100788.89;105922;1254;61682;-65
2023/09/04 01:27:27;;;;;;;10.90;3.10;;;;;;;13.53;100.00;100795.25;105690;1254;71577;-64
2023/09/04 01:30:45;;;;;;;9.70;3.10;;;;;;;13.57;100.00;100795.10;105605;1260;69112;-65
2023/09/04 01:33:42;;;;;;;9.50;2.90;;;;;;;13.62;100.00;100798.05;105729;1253;72078;-65
2023/09/04 01:36:32;;;;;;;12.20;3.10;;;;;;;13.67;100.00;100792.21;105822;1255;59334;-64
2023/09/04 01:39:23;;;;;;;8.10;3.00;;;;;;;13.72;100.00;100793.41;105488;1259;59762;-66
2023/09/04 01:42:11;;;;;;;11.10;3.70;;;;;;;13.75;100.00;100792.27;105549;1259;71675;-64
2023/09/04 01:44:59;;;;;;;9.50;3.00;;;;;;;13.78;100.00;100791.33;105497;1257;69452;-66
2023/09/04 01:47:48;;;;;;;9.90;3.10;;;;;;;13.83;100.00;100805.02;105632;1254;73458;-65
2023/09/04 01:50:36;;;;;;;10.00;2.90;;;;;;;13.85;100.00;100809.88;105629;1257;59241;-64
2023/09/04 01:53:25;;;;;;;10.30;2.80;;;;;;;13.83;100.00;100821.40;105614;1258;60564;-65
2023/09/04 01:56:13;;;;;;;10.70;2.90;;;;;;;13.79;100.00;100824.19;105703;1254;72784;-64
2023/09/04 01:59:01;;;;;;;10.30;2.90;;;;;;;13.78;100.00;100824.61;105665;1254;68350;-64
2023/09/04 02:01:49;;;;;;;9.70;2.80;;;;;;;13.76;100.00;100829.63;105614;1258;71868;-64
2023/09/04 02:04:37;;;;;;;10.50;3.20;;;;;;;13.75;100.00;100832.61;105864;1260;59928;-67
2023/09/04 02:07:25;;;;;;;11.40;3.10;;;;;;;13.74;100.00;100830.98;105799;1259;60956;-63
2023/09/04 02:10:14;;;;;;;10.80;3.10;;;;;;;13.74;100.00;100833.51;105810;1254;72852;-63
2023/09/04 02:13:03;;;;;;;10.50;3.00;;;;;;;13.76;100.00;100839.24;105570;1256;68158;-66
2023/09/04 02:15:51;;;;;;;10.00;3.40;;;;;;;13.79;100.00;100843.68;105911;1257;73096;-65
2023/09/04 02:18:40;;;;;;;9.60;2.80;;;;;;;13.82;100.00;100839.55;105680;1259;60033;-64
2023/09/04 02:21:28;;;;;;;9.60;2.80;;;;;;;13.86;100.00;100846.89;105733;1254;61860;-62
2023/09/04 02:24:16;;;;;;;12.70;3.20;;;;;;;13.90;100.00;100846.52;105684;1257;72832;-63
2023/09/04 02:27:04;;;;;;;9.50;3.00;;;;;;;13.92;100.00;100854.42;105830;1254;68303;-64
2023/09/04 02:29:52;;;;;;;9.90;2.90;;;;;;;13.94;100.00;100853.89;105706;1255;73263;-64
2023/09/04 02:32:41;;;;;;;10.90;2.80;;;;;;;13.95;100.00;100848.08;105803;1254;60321;-64
2023/09/04 02:35:29;;;;;;;12.00;3.60;;;;;;;13.95;100.00;100831.52;105688;1259;61791;-64
2023/09/04 02:38:19;;;;;;;8.70;3.00;;;;;;;13.95;100.00;100827.88;105758;1253;71461;-64
2023/09/04 02:41:08;;;;;;;10.60;3.20;;;;;;;13.97;100.00;100828.69;105796;1259;68414;-63
2023/09/04 02:43:56;;;;;;;11.80;3.40;;;;;;;13.96;100.00;100821.59;105640;1254;72141;-65
2023/09/04 02:46:44;;;;;;;13.10;3.20;;;;;;;13.96;100.00;100829.30;105600;1258;59845;-64
2023/09/04 02:49:32;;;;;;;10.10;2.90;;;;;;;13.95;100.00;100832.53;105885;1254;59780;-65
2023/09/04 02:52:21;;;;;;;11.80;3.50;;;;;;;13.95;100.00;100830.75;105821;1253;73792;-65
2023/09/04 02:55:09;;;;;;;9.50;2.90;;;;;;;13.97;100.00;100828.14;105410;1258;69465;-64
2023/09/04 02:57:58;;;;;;;12.00;3.00;;;;;;;13.98;100.00;100820.42;105771;1254;73944;-62
2023/09/04 03:00:49;;;;;;;10.70;3.10;;;;;;;14.00;100.00;100815.05;105649;1253;60959;-63
2023/09/04 03:03:38;;;;;;;8.30;3.40;;;;;;;14.02;100.00;100812.56;105634;1259;59813;-63
2023/09/04 03:06:26;;;;;;;9.20;2.80;;;;;;;14.04;100.00;100811.02;105753;1254;72679;-63
2023/09/04 03:09:15;;;;;;;10.30;3.50;;;;;;;14.04;100.00;100811.02;105709;1257;69403;-65
2023/09/04 03:12:04;;;;;;;10.90;3.60;;;;;;;14.04;100.00;100808.68;105710;1257;71772;-64
2023/09/04 03:14:58;;;;;;;9.30;3.10;;;;;;;14.05;100.00;100811.61;105725;1259;59535;-63
2023/09/04 03:17:46;;;;;;;11.80;3.40;;;;;;;14.06;100.00;100813.17;105847;1254;59972;-63
2023/09/04 03:20:35;;;;;;;15.00;3.40;;;;;;;14.07;100.00;100815.40;105675;1258;73018;-67
2023/09/04 03:23:23;;;;;;;12.40;3.10;;;;;;;14.09;100.00;100811.81;105934;1257;68394;-66
2023/09/04 03:26:11;;;;;;;10.30;2.80;;;;;;;14.10;100.00;100804.98;105793;1254;74288;-67
2023/09/04 03:28:59;;;;;;;8.90;3.10;;;;;;;14.10;100.00;100805.91;106195;1254;61106;-63
2023/09/04 03:31:48;;;;;;;9.90;3.10;;;;;;;14.10;100.00;100822.67;105890;1254;59750;-67
2023/09/04 03:34:37;;;;;;;11.10;2.90;;;;;;;14.09;100.00;100828.91;105886;1253;72760;-65
2023/09/04 03:37:25;;;;;;;13.30;3.00;;;;;;;14.10;100.00;100824.10;105811;1254;68311;-65
2023/09/04 03:40:22;;;;;;;9.50;3.00;;;;;;;14.10;100.00;100824.05;105721;1260;73250;-64
2023/09/04 03:43:10;;;;;;;9.70;3.20;;;;;;;14.12;100.00;100818.58;105589;1254;59216;-65
2023/09/04 03:45:58;;;;;;;8.80;3.00;;;;;;;14.13;100.00;100821.18;105912;1256;61808;-64
2023/09/04 03:48:46;;;;;;;10.50;3.00;;;;;;;14.13;100.00;100823.98;105749;1256;72556;-63
2023/09/04 03:51:35;;;;;;;11.70;3.20;;;;;;;14.15;100.00;100820.83;105703;1253;68714;-63
2023/09/04 03:54:22;;;;;;;9.50;3.10;;;;;;;14.17;100.00;100820.86;105612;1253;72860;-64
2023/09/04 03:57:13;;;;;;;11.50;2.80;;;;;;;14.18;100.00;100813.46;105702;1257;59206;-66
2023/09/04 04:00:01;;;;;;;11.20;2.60;;;;;;;14.18;100.00;100816.99;105790;1257;59538;-64
2023/09/04 04:03:00;;;;;;;11.30;3.30;;;;;;;14.18;100.00;100817.77;105545;1254;72685;-64
2023/09/04 04:05:49;;;;;;;9.80;3.00;;;;;;;14.17;100.00;100817.95;105644;1254;68300;-67
2023/09/04 04:08:38;;;;;;;8.70;3.40;;;;;;;14.17;100.00;100815.67;105730;1254;74053;-65
2023/09/04 04:11:27;;;;;;;7.50;2.60;;;;;;;14.17;100.00;100820.10;105774;1254;60298;-64
2023/09/04 04:14:15;;;;;;;9.40;2.70;;;;;;;14.16;100.00;100823.45;105765;1254;61683;-64
2023/09/04 04:17:03;;;;;;;8.70;3.10;;;;;;;14.16;100.00;100832.00;105761;1253;72451;-64
2023/09/04 04:19:53;;;;;;;7.50;2.90;;;;;;;14.16;100.00;100840.42;105573;1257;69424;-64
2023/09/04 04:22:42;;;;;;;9.80;3.10;;;;;;;14.16;100.00;100843.76;105941;1257;72131;-63
2023/09/04 04:25:30;;;;;;;10.30;3.10;;;;;;;14.18;100.00;100854.10;105537;1254;59276;-64
2023/09/04 04:28:20;;;;;;;11.10;3.10;;;;;;;14.22;100.00;100856.51;105829;1257;59758;-64
2023/09/04 04:31:10;;;;;;;10.20;3.00;;;;;;;14.25;100.00;100855.35;105744;1254;73737;-64
2023/09/04 04:33:58;;;;;;;9.10;3.10;;;;;;;14.28;100.00;100859.91;105799;1256;68219;-64
2023/09/04 04:36:55;;;;;;;11.50;3.20;;;;;;;14.32;100.00;100866.20;105786;1254;73197;-65
2023/09/04 04:39:43;;;;;;;11.10;3.60;;;;;;;14.36;100.00;100867.84;105476;1259;60723;-64
2023/09/04 04:42:32;;;;;;;13.30;3.30;;;;;;;14.41;100.00;100862.98;105673;1257;61151;-67
2023/09/04 04:45:21;;;;;;;8.20;3.00;;;;;;;14.45;100.00;100860.34;105593;1253;72432;-66
2023/09/04 04:48:10;;;;;;;8.20;2.90;;;;;;;14.48;100.00;100863.32;105611;1257;68436;-68
2023/09/04 04:50:59;;;;;;;11.80;3.00;;;;;;;14.53;100.00;100868.48;105599;1258;71871;-66
2023/09/04 04:53:48;;;;;;;10.80;3.20;;;;;;;14.55;100.00;100867.24;105439;1257;60161;-66
2023/09/04 04:56:36;;;;;;;10.80;3.60;;;;;;;14.58;100.00;100863.73;105469;1258;60807;-67
2023/09/04 04:59:24;;;;;;;10.10;3.70;;;;;;;14.61;100.00;100863.46;105649;1253;72570;-65
2023/09/04 05:02:13;;;;;;;8.20;3.00;;;;;;;14.66;100.00;100871.70;105651;1256;68171;-68
2023/09/04 05:05:01;;;;;;;10.70;3.60;;;;;;;14.69;100.00;100874.85;105702;1257;71845;-68
2023/09/04 05:07:50;;;;;;;11.60;3.00;;;;;;;14.72;100.00;100876.64;105377;1254;59801;-66
2023/09/04 05:10:39;;;;;;;8.50;3.00;;;;;;;14.73;100.00;100878.13;105679;1253;61781;-66
2023/09/04 05:13:27;;;;;;;9.70;2.70;;;;;;;14.76;100.00;100876.93;105668;1254;72807;-66
2023/09/04 05:16:15;;;;;;;10.30;3.00;;;;;;;14.80;100.00;100881.11;105625;1260;67524;-65
2023/09/04 05:19:04;;;;;;;11.90;3.50;;;;;;;14.84;100.00;100876.84;105647;1253;73341;-63
2023/09/04 05:21:52;;;;;;;9.80;2.80;;;;;;;14.90;100.00;100872.39;105471;1258;60948;-64
2023/09/04 05:24:44;;;;;;;9.20;2.90;;;;;;;15.00;100.00;100869.08;105557;1254;61883;-65
2023/09/04 05:27:38;;;;;;;8.00;2.90;;;;;;;15.11;100.00;100864.08;105671;1253;73635;-65
2023/09/04 05:30:26;;;;;;;10.10;2.90;;;;;;;15.24;100.00;100872.10;105562;1261;69545;-66
2023/09/04 05:33:14;;;;;;;9.50;3.00;;;;;;;15.38;100.00;100878.62;105537;1257;71873;-65
2023/09/04 05:36:03;;;;;;;8.20;2.90;;;;;;;15.51;100.00;100883.75;105675;1257;60618;-67
2023/09/04 05:38:52;;;;;;;11.40;2.80;;;;;;;15.63;100.00;100890.39;105708;1253;60000;-66
2023/09/04 05:41:39;;;;;;;9.40;2.70;;;;;;;15.72;100.00;100901.80;105751;1253;73841;-67
2023/09/04 05:44:28;;;;;;;8.90;2.80;;;;;;;15.78;100.00;100899.91;105436;1257;69567;-65
2023/09/04 05:47:17;;;;;;;7.50;2.70;;;;;;;15.84;100.00;100898.66;105718;1254;73880;-64
2023/09/04 05:50:05;;;;;;;8.90;2.90;;;;;;;15.90;100.00;100897.79;105678;1253;59223;-64
2023/09/04 05:52:54;;;;;;;9.00;2.50;;;;;;;15.96;99.97;100895.86;105700;1257;60699;-65
2023/09/04 05:55:42;;;;;;;8.20;2.50;;;;;;;16.04;99.58;100900.84;105382;1257;73705;-63
2023/09/04 05:58:30;;;;;;;8.20;2.90;;;;;;;16.15;99.50;100900.96;105786;1253;68073;-65
2023/09/04 06:01:20;;;;;;;7.00;2.50;;;;;;;16.26;98.59;100905.95;105686;1253;73989;-66
2023/09/04 06:04:08;;;;;;;9.90;2.80;;;;;;;16.36;97.72;100911.71;105697;1253;59261;-64
2023/09/04 06:06:56;;;;;;;9.60;2.80;;;;;;;16.47;97.33;100913.21;105685;1252;59255;-64
2023/09/04 06:09:44;;;;;;;8.70;2.60;;;;;;;16.58;96.42;100911.15;105724;1252;73727;-64
2023/09/04 06:12:33;;;;;;;8.50;2.40;;;;;;;16.66;95.41;100912.89;105603;1253;68231;-64
2023/09/04 06:15:21;;;;;;;9.00;2.60;;;;;;;16.74;94.50;100921.25;105724;1257;73684;-65
2023/09/04 06:18:09;;;;;;;7.80;2.40;;;;;;;16.82;93.93;100922.81;105681;1259;59607;-64
2023/09/04 06:20:57;;;;;;;7.20;2.70;;;;;;;16.90;92.93;100926.56;105630;1252;60925;-67
2023/09/04 06:23:45;;;;;;;8.50;2.60;;;;;;;16.98;91.92;100926.38;105766;1253;73738;-63
2023/09/04 06:26:34;;;;;;;8.00;2.40;;;;;;;17.04;91.06;100929.28;105689;1252;68260;-62
2023/09/04 06:29:22;;;;;;;9.90;2.50;;;;;;;17.07;90.19;100927.21;105695;1253;73564;-64
2023/09/04 06:32:13;;;;;;;7.80;2.30;;;;;;;17.09;89.55;100925.60;105682;1253;59271;-65
2023/09/04 06:35:01;;;;;;;7.30;2.00;;;;;;;17.13;89.33;100926.61;105581;1252;59394;-66
2023/09/04 06:37:50;;;;;;;7.60;1.90;;;;;;;17.16;88.76;100932.10;105861;1253;73432;-65
2023/09/04 06:40:38;;;;;;;10.00;2.30;;;;;;;17.16;88.68;100929.98;105554;1257;69500;-65
2023/09/04 06:43:29;;;;;;;7.60;2.80;;;;;;;17.09;88.11;100923.42;105503;1253;73952;-65
2023/09/04 06:46:17;;;;;;;10.00;3.10;;;;;;;17.08;88.55;100928.56;105749;1257;59859;-67
2023/09/04 06:49:05;;;;;;;9.60;2.80;;;;;;;17.05;88.86;100932.22;105501;1253;59718;-66
2023/09/04 06:51:53;;;;;;;8.70;2.80;;;;;;;17.08;89.57;100939.33;105759;1253;73736;-65
2023/09/04 06:54:41;;;;;;;7.70;2.40;;;;;;;17.14;89.48;100939.98;105727;1253;67079;-63
2023/09/04 06:57:29;;;;;;;9.30;2.50;;;;;;;17.20;89.17;100939.10;105478;1255;73159;-64
2023/09/04 07:00:19;;;;;;;7.00;2.40;;;;;;;17.23;88.88;100937.90;105411;1253;59331;-64
2023/09/04 07:03:07;;;;;;;9.10;2.40;;;;;;;17.28;88.82;100942.16;105771;1253;60629;-66
2023/09/04 07:05:56;;;;;;;8.20;2.70;;;;;;;17.32;88.27;100938.38;105756;1254;72825;-63
2023/09/04 07:08:44;;;;;;;8.70;2.90;;;;;;;17.38;88.21;100935.81;105711;1254;68687;-64
2023/09/04 07:11:32;;;;;;;7.70;2.20;;;;;;;17.48;88.00;100936.54;105754;1257;72303;-66
2023/09/04 07:14:20;;;;;;;10.50;3.00;;;;;;;17.62;87.82;100933.09;105752;1257;61087;-69
2023/09/04 07:17:08;;;;;;;7.40;2.50;;;;;;;17.77;87.48;100931.09;105826;1257;60809;-66
2023/09/04 07:19:56;;;;;;;8.60;2.60;;;;;;;17.98;86.93;100931.13;105790;1253;73511;-66
2023/09/04 07:22:45;;;;;;;7.90;2.40;;;;;;;18.12;84.64;100932.11;105817;1253;68835;-67
2023/09/04 07:25:34;;;;;;;7.50;2.60;;;;;;;18.27;84.39;100926.71;105714;1256;71525;-67
2023/09/04 07:28:23;;;;;;;9.50;2.40;;;;;;;18.41;82.97;100935.14;105833;1257;59871;-63
2023/09/04 07:31:19;;;;;;;8.00;2.50;;;;;;;18.51;82.18;100934.33;105729;1252;60011;-64
2023/09/04 07:34:07;;;;;;;8.90;2.50;;;;;;;18.59;80.71;100934.79;105754;1252;72804;-66
2023/09/04 07:36:55;;;;;;;8.20;2.50;;;;;;;18.66;80.75;100930.48;105577;1254;384753;-65
2023/09/04 07:39:43;;;;;;;6.30;2.30;;;;;;;18.72;80.51;100931.34;105717;1254;73074;-66
2023/09/04 07:42:32;;;;;;;8.60;2.40;;;;;;;18.82;80.20;100940.79;105698;1253;60658;-65
2023/09/04 07:45:21;;;;;;;7.50;2.20;;;;;;;19.05;79.60;100943.61;105672;1252;61866;-64
2023/09/04 07:48:09;;;;;;;8.80;2.20;;;;;;;19.28;76.88;100942.94;105652;1253;71455;-64
2023/09/04 07:50:57;;;;;;;8.30;2.10;;;;;;;19.49;75.65;100938.09;105867;1257;68385;-66
2023/09/04 07:53:47;;;;;;;6.50;2.20;;;;;;;19.76;75.46;100939.92;105731;1257;73962;-64
2023/09/04 07:56:34;;;;;;;7.20;2.20;;;;;;;20.09;74.80;100936.50;105724;1253;59958;-64
2023/09/04 07:59:25;;;;;;;7.50;1.90;;;;;;;20.49;72.13;100930.50;105721;1252;61597;-65
2023/09/04 08:02:13;;;;;;;6.70;2.30;;;;;;;20.91;71.02;100930.79;105423;1254;72910;-66
2023/09/04 08:05:02;;;;;;;7.40;1.90;;;;;;;21.65;68.11;100931.91;105892;1252;68261;-66
2023/09/04 08:07:50;;;;;;;7.70;1.80;;;;;;;22.24;65.84;100929.15;105631;1254;73437;-69
2023/09/04 08:10:43;;;;;;;6.80;2.00;;;;;;;22.79;64.30;100919.99;105662;1258;59537;-66
2023/09/04 08:13:31;;;;;;;7.70;1.70;;;;;;;23.56;61.82;100918.34;105715;1258;60776;-65
2023/09/04 08:16:19;;;;;;;7.50;1.90;;;;;;;24.23;59.49;100914.09;105636;1253;71189;-63
2023/09/04 08:19:08;;;;;;;7.10;1.70;;;;;;;24.79;57.16;100912.73;105701;1253;68491;-64
2023/09/04 08:21:58;;;;;;;5.90;1.40;;;;;;;25.35;52.81;100908.35;105721;1257;74231;-67
2023/09/04 08:24:48;;;;;;;6.00;1.40;;;;;;;25.57;53.02;100908.33;105624;1257;59244;-66
2023/09/04 08:27:38;;;;;;;6.10;1.40;;;;;;;26.23;50.90;100907.59;105569;1254;59689;-65
2023/09/04 08:30:27;;;;;;;6.40;1.80;;;;;;;27.96;47.26;100899.63;105615;1254;72805;-66
2023/09/04 08:33:15;;;;;;;7.30;1.60;;;;;;;28.30;45.20;100892.34;105700;1255;68259;-62
2023/09/04 08:36:03;;;;;;;6.40;1.70;;;;;;;28.85;43.69;100895.89;105729;1257;73174;-64
2023/09/04 08:38:51;;;;;;;5.70;1.40;;;;;;;29.47;42.77;100895.60;105694;1256;59270;-69
2023/09/04 08:41:41;;;;;;;6.20;1.40;;;;;;;30.75;40.73;100894.73;105703;1257;59706;-66
2023/09/04 08:44:30;;;;;;;5.60;1.50;;;;;;;31.92;36.38;100890.64;105454;1257;73531;-64
2023/09/04 08:47:23;;;;;;;6.50;1.40;;;;;;;32.87;35.47;100899.71;105668;1257;68178;-65
2023/09/04 08:50:12;;;;;;;5.90;1.40;;;;;;;33.81;32.90;100901.15;105747;1254;73249;-63
2023/09/04 08:53:00;;;;;;;6.80;1.70;;;;;;;34.41;32.26;100899.23;105657;1253;59217;-66
2023/09/04 08:55:50;;;;;;;8.00;1.60;;;;;;;34.38;32.49;100900.87;105180;1257;60563;-64
2023/09/04 08:58:38;;;;;;;7.80;1.60;;;;;;;33.54;32.85;100897.27;105528;1254;72874;-66
2023/09/04 09:01:31;;;;;;;6.00;1.40;;;;;;;32.68;33.89;100899.03;105596;1257;68695;-67
2023/09/04 09:04:21;;;;;;;6.40;1.60;;;;;;;31.69;35.06;100894.58;105957;1257;74148;-66
2023/09/04 09:07:12;;;;;;;6.90;1.40;;;;;;;31.19;35.67;100891.33;105412;1256;59383;-68
2023/09/04 09:10:07;;;;;;;6.70;1.60;;;;;;;31.28;36.24;100891.84;105656;1255;61185;-68
2023/09/04 09:12:56;;;;;;;5.50;1.30;;;;;;;31.66;35.42;100897.10;105713;1254;73643;-66
2023/09/04 09:15:44;;;;;;;6.30;1.40;;;;;;;31.44;36.06;100898.81;105455;1257;69230;-66
2023/09/04 09:18:38;;;;;;;7.40;1.50;;;;;;;30.78;36.26;100914.10;105693;1254;73240;-66
2023/09/04 09:21:28;;;;;;;7.00;1.70;;;;;;;30.06;37.77;100916.04;105434;1258;59425;-65
2023/09/04 09:24:19;;;;;;;7.20;1.70;;;;;;;29.46;38.98;100916.61;105454;1253;60120;-66
2023/09/04 09:27:08;;;;;;;7.90;1.70;;;;;;;28.73;40.58;100917.67;105431;1258;73450;-66
2023/09/04 09:29:58;;;;;;;7.20;1.70;;;;;;;28.21;41.91;100914.48;105777;1253;69550;-66
2023/09/04 09:32:46;;;;;;;6.90;1.90;;;;;;;27.86;43.06;100910.12;105840;1257;73075;-66
2023/09/04 09:35:35;;;;;;;6.90;1.80;;;;;;;27.70;43.46;100907.83;105651;1258;59436;-67
2023/09/04 09:38:23;;;;;;;8.00;1.80;;;;;;;27.94;43.37;100906.46;105792;1257;60734;-68
2023/09/04 09:41:13;;;;;;;7.40;1.60;;;;;;;28.16;42.43;100906.67;105589;1253;72398;-66
2023/09/04 09:44:03;;;;;;;7.40;1.80;;;;;;;27.78;43.35;100905.26;105905;1257;68421;-68
2023/09/04 09:46:52;;;;;;;6.30;1.70;;;;;;;28.03;42.90;100904.00;105689;1253;71840;-65
2023/09/04 09:49:41;;;;;;;7.20;1.70;;;;;;;27.84;43.16;100902.98;105722;1253;59289;-66
2023/09/04 09:52:29;;;;;;;6.40;1.80;;;;;;;27.58;44.25;100905.83;105687;1252;60852;-65
2023/09/04 09:55:24;;;;;;;8.10;2.00;;;;;;;27.69;44.51;100898.21;105732;1253;72573;-68
2023/09/04 09:58:13;;;;;;;7.10;2.10;;;;;;;27.69;44.05;100899.55;105375;1253;69440;-66
2023/09/04 10:01:02;;;;;;;7.80;2.10;;;;;;;27.63;43.97;100899.14;105810;1256;73288;-67
2023/09/04 10:03:51;;;;;;;6.50;1.90;;;;;;;27.25;44.92;100898.23;105798;1253;59808;-65
2023/09/04 10:06:42;;;;;;;7.90;3.20;;;;;;;27.34;45.09;100898.30;105666;1255;59551;-65
2023/09/04 10:09:41;;;;;;;7.00;2.00;;;;;;;27.46;44.21;100898.19;105746;1253;73679;-66
2023/09/04 10:12:43;;;;;;;7.90;1.90;;;;;;;27.66;44.27;100900.83;105310;1257;69439;-66
2023/09/04 10:15:36;;;;;;;8.00;1.80;;;;;;;27.48;44.14;100902.27;105514;1253;74241;-67
2023/09/04 10:18:30;;;;;;;7.90;1.90;;;;;;;27.15;44.66;100906.80;105672;1252;59695;-66
2023/09/04 10:21:22;;;;;;;7.80;1.60;;;;;;;26.92;45.34;100897.92;105547;1253;60931;-65
2023/09/04 10:24:15;;;;;;;7.40;1.90;;;;;;;27.17;44.51;100905.13;105910;1253;72515;-64
2023/09/04 10:27:09;;;;;;;7.50;1.70;;;;;;;27.02;44.60;100906.66;105695;1256;69516;-67
2023/09/04 10:30:04;;;;;;;6.40;1.70;;;;;;;26.65;45.35;100910.80;105619;1252;74465;-66
2023/09/04 10:32:55;;;;;;;6.30;1.60;;;;;;;26.11;45.86;100916.80;105677;1258;59692;-68
2023/09/04 10:35:45;;;;;;;6.50;1.70;;;;;;;25.87;46.92;100913.89;105692;1256;59759;-65
2023/09/04 10:38:36;;;;;;;7.00;2.00;;;;;;;25.63;47.27;100919.33;105647;1256;72441;-67
2023/09/04 10:41:26;;;;;;;7.40;1.80;;;;;;;25.17;48.33;100915.73;105363;1257;69598;-64
2023/09/04 10:44:47;;;;;;;6.30;1.90;;;;;;;24.76;49.49;100915.02;105670;1253;73321;-65
2023/09/04 10:47:43;;;;;;;7.40;2.20;;;;;;;24.39;51.04;100916.52;105682;1253;59346;-68
2023/09/04 10:50:39;;;;;;;7.90;1.70;;;;;;;24.13;51.98;100916.35;105471;1253;60674;-64
2023/09/04 10:53:31;;;;;;;6.50;1.80;;;;;;;24.22;52.71;100913.31;105712;1253;72640;-65
2023/09/04 10:56:19;;;;;;;9.10;1.90;;;;;;;24.21;52.68;100919.23;105778;1257;68600;-66
2023/09/04 10:59:07;;;;;;;5.80;1.80;;;;;;;24.27;52.06;100914.94;105449;1253;74327;-65
2023/09/04 11:01:55;;;;;;;6.80;1.90;;;;;;;24.60;51.55;100910.16;105692;1253;59405;-66
2023/09/04 11:04:49;;;;;;;6.90;2.20;;;;;;;24.98;50.67;100905.61;105782;1256;61535;-66
2023/09/04 11:07:37;;;;;;;7.30;1.60;;;;;;;25.41;49.12;100909.18;105835;1253;72679;-64
2023/09/04 11:10:36;;;;;;;6.70;1.70;;;;;;;25.55;48.04;100906.49;105442;1253;68463;-65
2023/09/04 11:13:26;;;;;;;6.70;1.90;;;;;;;25.38;48.28;100906.73;105639;1254;74867;-64
2023/09/04 11:16:15;;;;;;;6.80;1.80;;;;;;;25.41;48.20;100908.85;105630;1253;59384;-68
2023/09/04 11:19:13;;;;;;;6.70;1.80;;;;;;;25.38;48.55;100908.95;105819;1256;59994;-65
2023/09/04 11:22:01;;;;;;;7.50;1.70;;;;;;;25.35;48.95;100908.07;105743;1253;73781;-63
2023/09/04 11:24:51;;;;;;;6.00;1.60;;;;;;;25.18;48.83;100908.55;105764;1256;68443;-65
2023/09/04 11:27:39;;;;;;;6.80;2.10;;;;;;;24.90;49.31;100909.47;105718;1257;73974;-66
2023/09/04 11:30:28;;;;;;;7.30;1.80;;;;;;;24.70;49.69;100898.54;105638;1257;59260;-66
2023/09/04 11:33:15;;;;;;;9.30;2.10;;;;;;;24.58;50.06;100899.72;105461;1256;59761;-64
2023/09/04 11:36:06;;;;;;;6.70;2.00;;;;;;;25.05;49.90;100905.64;105755;1256;72840;-64
2023/09/04 11:39:06;;;;;;;7.90;1.80;;;;;;;26.22;47.73;100902.42;105875;1252;67496;-67
2023/09/04 11:41:54;;;;;;;6.30;1.70;;;;;;;26.97;46.20;100896.74;105656;1258;72985;-65
2023/09/04 11:44:45;;;;;;;6.60;1.80;;;;;;;27.16;45.06;100896.17;105680;1254;59354;-65
2023/09/04 11:47:34;;;;;;;7.50;1.50;;;;;;;27.22;44.22;100891.40;105688;1253;61117;-67
2023/09/04 11:50:22;;;;;;;6.30;1.90;;;;;;;27.64;43.44;100896.55;105578;1253;71693;-66
2023/09/04 11:53:10;;;;;;;8.70;1.90;;;;;;;28.14;42.32;100896.73;105729;1252;69127;-64
2023/09/04 11:55:59;;;;;;;6.20;1.80;;;;;;;28.32;42.32;100904.62;105591;1253;72112;-67
2023/09/04 11:58:47;;;;;;;7.10;1.80;;;;;;;28.00;41.60;100909.48;105498;1253;59327;-64
2023/09/04 12:01:35;;;;;;;6.80;1.70;;;;;;;27.65;42.54;100915.09;105681;1253;60479;-68
2023/09/04 12:04:24;;;;;;;6.80;1.60;;;;;;;27.56;43.20;100912.55;105697;1252;72621;-68
2023/09/04 12:07:16;;;;;;;6.70;1.80;;;;;;;27.35;44.01;100913.23;105485;1253;67168;-67
2023/09/04 12:10:06;;;;;;;6.20;1.50;;;;;;;27.30;43.93;100914.80;105858;1256;73213;-66
2023/09/04 12:12:55;;;;;;;6.90;1.70;;;;;;;27.25;43.30;100910.44;105754;1258;59581;-69
2023/09/04 12:15:43;;;;;;;7.60;2.00;;;;;;;27.17;43.72;100906.82;105919;1257;60613;-64
2023/09/04 12:18:35;;;;;;;6.00;1.80;;;;;;;27.16;43.26;100911.05;105579;1253;72574;-63
2023/09/04 12:21:23;;;;;;;7.50;1.80;;;;;;;26.92;43.27;100909.59;105649;1257;69504;-63
2023/09/04 12:24:16;;;;;;;6.00;1.70;;;;;;;26.67;43.99;100905.23;105948;1257;72070;-65
2023/09/04 12:27:05;;;;;;;6.90;1.70;;;;;;;26.70;44.45;100901.08;105376;1258;59452;-65
2023/09/04 12:29:52;;;;;;;6.40;1.80;;;;;;;26.77;45.25;100899.44;105821;1257;60362;-66
2023/09/04 12:32:42;;;;;;;6.20;1.50;;;;;;;26.83;45.00;100900.63;105941;1257;73625;-66
2023/09/04 12:35:32;;;;;;;6.60;1.90;;;;;;;26.75;44.76;100900.98;105684;1257;67143;-64
2023/09/04 12:38:21;;;;;;;7.10;2.10;;;;;;;26.45;45.37;100897.67;105777;1253;73313;-63
2023/09/04 12:41:09;;;;;;;6.80;1.90;;;;;;;26.22;45.97;100899.00;105699;1253;59347;-67
2023/09/04 12:43:58;;;;;;;6.70;1.80;;;;;;;26.03;46.12;100890.58;105798;1256;59710;-67
2023/09/04 12:46:46;;;;;;;6.10;1.70;;;;;;;25.89;46.67;100886.51;105747;1253;73924;-67
2023/09/04 12:49:34;;;;;;;6.00;1.80;;;;;;;25.74;47.45;100883.39;105733;1257;69189;-66
2023/09/04 12:52:22;;;;;;;6.40;1.90;;;;;;;25.60;47.45;100886.30;105506;1255;73219;-65
2023/09/04 12:55:11;;;;;;;5.40;1.60;;;;;;;25.58;47.69;100886.67;105727;1253;59269;-64